sensor_id;sensor_type;location;lat;lon;timestamp;pressure;altitude;pressure_sealevel;temperature;humidity
9035;BME280;4552;43.422;24.592;2023-04-28T00:05:39;100194.91;;;8.31;63.68
9035;BME280;4552;43.422;24.592;2023-04-28T00:08:06;100202.69;;;8.15;64.81
9035;BME280;4552;43.422;24.592;2023-04-28T00:10:52;100205.31;;;8.06;64.55
9035;BME280;4552;43.422;24.592;2023-04-28T00:13:31;100203.56;;;7.97;65.22
9035;BME280;4552;43.422;24.592;2023-04-28T00:15:58;100199.22;;;7.92;65.48
9035;BME280;4552;43.422;24.592;2023-04-28T00:18:35;100211.41;;;8.05;65.94
9035;BME280;4552;43.422;24.592;2023-04-28T00:21:24;100211.41;;;8.08;65.61
9035;BME280;4552;43.422;24.592;2023-04-28T00:23:53;100208.78;;;8.03;65.20
9035;BME280;4552;43.422;24.592;2023-04-28T00:26:20;100210.50;;;7.82;66.18
9035;BME280;4552;43.422;24.592;2023-04-28T00:28:46;100203.56;;;7.78;66.54
9035;BME280;4552;43.422;24.592;2023-04-28T00:31:20;100196.59;;;7.80;66.78
9035;BME280;4552;43.422;24.592;2023-04-28T00:33:47;100207.91;;;7.88;66.24
9035;BME280;4552;43.422;24.592;2023-04-28T00:36:13;100209.63;;;7.83;66.99
9035;BME280;4552;43.422;24.592;2023-04-28T00:49:32;100220.00;;;7.59;68.38
9035;BME280;4552;43.422;24.592;2023-04-28T00:52:03;100226.09;;;7.61;68.70
9035;BME280;4552;43.422;24.592;2023-04-28T00:54:46;100225.22;;;7.62;68.07
9035;BME280;4552;43.422;24.592;2023-04-28T00:57:16;100225.19;;;7.56;68.36
9035;BME280;4552;43.422;24.592;2023-04-28T00:59:43;100214.75;;;7.45;68.86
9035;BME280;4552;43.422;24.592;2023-04-28T01:02:13;100226.88;;;7.39;69.59
9035;BME280;4552;43.422;24.592;2023-04-28T01:05:00;100227.75;;;7.39;70.65
9035;BME280;4552;43.422;24.592;2023-04-28T01:07:28;100218.13;;;7.22;71.23
9035;BME280;4552;43.422;24.592;2023-04-28T01:09:55;100235.59;;;7.45;71.76
9035;BME280;4552;43.422;24.592;2023-04-28T01:12:22;100240.75;;;7.38;72.57
9035;BME280;4552;43.422;24.592;2023-04-28T01:14:49;100233.88;;;7.46;74.01
9035;BME280;4552;43.422;24.592;2023-04-28T01:17:16;100227.69;;;7.21;73.33
9035;BME280;4552;43.422;24.592;2023-04-28T01:20:04;100246.72;;;7.14;74.12
9035;BME280;4552;43.422;24.592;2023-04-28T01:23:02;100243.28;;;7.15;74.23
9035;BME280;4552;43.422;24.592;2023-04-28T01:35:35;100236.09;;;6.73;76.81
9035;BME280;4552;43.422;24.592;2023-04-28T01:38:02;100239.53;;;6.72;76.74
9035;BME280;4552;43.422;24.592;2023-04-28T01:40:30;100239.59;;;6.77;76.29
9035;BME280;4552;43.422;24.592;2023-04-28T01:42:58;100231.88;;;6.93;77.12
9035;BME280;4552;43.422;24.592;2023-04-28T01:45:26;100226.72;;;6.99;76.62
9035;BME280;4552;43.422;24.592;2023-04-28T01:47:53;100235.34;;;6.95;77.54
9035;BME280;4552;43.422;24.592;2023-04-28T01:50:51;100233.59;;;6.93;77.18
9035;BME280;4552;43.422;24.592;2023-04-28T02:03:28;100240.38;;;6.67;80.03
9035;BME280;4552;43.422;24.592;2023-04-28T02:05:55;100235.16;;;6.62;80.48
9035;BME280;4552;43.422;24.592;2023-04-28T02:08:37;100235.16;;;6.62;81.95
9035;BME280;4552;43.422;24.592;2023-04-28T02:11:04;100243.81;;;6.61;81.24
9035;BME280;4552;43.422;24.592;2023-04-28T02:13:50;100245.53;;;6.59;81.07
9035;BME280;4552;43.422;24.592;2023-04-28T02:16:17;100241.16;;;6.54;81.75
9035;BME280;4552;43.422;24.592;2023-04-28T02:18:44;100243.69;;;6.43;82.34
9035;BME280;4552;43.422;24.592;2023-04-28T02:21:11;100238.41;;;6.37;82.46
9035;BME280;4552;43.422;24.592;2023-04-28T02:23:58;100240.03;;;6.20;81.76
9035;BME280;4552;43.422;24.592;2023-04-28T02:26:25;100230.34;;;6.03;82.87
9035;BME280;4552;43.422;24.592;2023-04-28T02:28:53;100232.88;;;5.98;83.68
9035;BME280;4552;43.422;24.592;2023-04-28T02:31:20;100231.06;;;5.88;83.53
9035;BME280;4552;43.422;24.592;2023-04-28T02:33:47;100248.41;;;5.91;83.20
9035;BME280;4552;43.422;24.592;2023-04-28T02:36:34;100255.34;;;5.93;83.05
9035;BME280;4552;43.422;24.592;2023-04-28T02:45:51;100277.09;;;6.04;83.97
9035;BME280;4552;43.422;24.592;2023-04-28T02:48:20;100276.31;;;6.11;84.24
9035;BME280;4552;43.422;24.592;2023-04-28T02:50:47;100300.56;;;6.13;83.35
9035;BME280;4552;43.422;24.592;2023-04-28T02:53:31;100281.56;;;6.14;83.00
9035;BME280;4552;43.422;24.592;2023-04-28T02:55:58;100299.00;;;6.27;82.60
9035;BME280;4552;43.422;24.592;2023-04-28T02:58:26;100302.50;;;6.32;82.33
9035;BME280;4552;43.422;24.592;2023-04-28T03:01:10;100312.94;;;6.35;81.65
9035;BME280;4552;43.422;24.592;2023-04-28T03:03:37;100296.38;;;6.24;81.74
9035;BME280;4552;43.422;24.592;2023-04-28T03:06:04;100313.63;;;6.19;81.88
9035;BME280;4552;43.422;24.592;2023-04-28T03:08:31;100306.91;;;6.41;83.69
9035;BME280;4552;43.422;24.592;2023-04-28T03:11:12;100316.97;;;7.13;87.97
9035;BME280;4552;43.422;24.592;2023-04-28T03:13:54;100324.06;;;7.35;86.46
9035;BME280;4552;43.422;24.592;2023-04-28T03:16:23;100329.34;;;7.48;85.62
9035;BME280;4552;43.422;24.592;2023-04-28T03:19:10;100327.63;;;7.52;82.12
9035;BME280;4552;43.422;24.592;2023-04-28T03:21:39;100323.78;;;6.92;78.38
9035;BME280;4552;43.422;24.592;2023-04-28T03:24:18;100330.72;;;6.87;78.49
9035;BME280;4552;43.422;24.592;2023-04-28T03:26:55;100331.34;;;6.61;78.67
9035;BME280;4552;43.422;24.592;2023-04-28T03:29:22;100333.09;;;6.65;77.81
9035;BME280;4552;43.422;24.592;2023-04-28T03:31:55;100340.03;;;6.61;78.28
9035;BME280;4552;43.422;24.592;2023-04-28T03:34:22;100341.63;;;6.46;78.96
9035;BME280;4552;43.422;24.592;2023-04-28T03:36:58;100347.84;;;6.61;79.34
9035;BME280;4552;43.422;24.592;2023-04-28T05:14:04;100429.50;;;8.13;74.50
9035;BME280;4552;43.422;24.592;2023-04-28T05:16:31;100437.56;;;8.81;72.34
9035;BME280;4552;43.422;24.592;2023-04-28T05:19:04;100451.50;;;9.16;68.61
9035;BME280;4552;43.422;24.592;2023-04-28T05:21:31;100453.22;;;9.29;67.46
9035;BME280;4552;43.422;24.592;2023-04-28T07:39:57;100505.72;;;11.24;70.69
9035;BME280;4552;43.422;24.592;2023-04-28T07:42:24;100511.56;;;11.57;71.40
9035;BME280;4552;43.422;24.592;2023-04-28T07:44:51;100501.94;;;11.59;71.08
9035;BME280;4552;43.422;24.592;2023-04-28T07:47:31;100506.06;;;11.90;70.71
9035;BME280;4552;43.422;24.592;2023-04-28T07:50:00;100510.84;;;12.33;69.29
9035;BME280;4552;43.422;24.592;2023-04-28T07:52:29;100509.69;;;11.76;71.87
9035;BME280;4552;43.422;24.592;2023-04-28T08:15:09;100490.34;;;13.75;66.77
9035;BME280;4552;43.422;24.592;2023-04-28T08:17:36;100506.81;;;13.86;65.47
9035;BME280;4552;43.422;24.592;2023-04-28T08:20:04;100504.47;;;13.18;67.23
9035;BME280;4552;43.422;24.592;2023-04-28T08:22:32;100495.47;;;13.31;66.31
9035;BME280;4552;43.422;24.592;2023-04-28T08:31:48;100499.00;;;13.30;66.89
9035;BME280;4552;43.422;24.592;2023-04-28T08:34:15;100490.91;;;13.42;67.07
9035;BME280;4552;43.422;24.592;2023-04-28T08:36:42;100489.47;;;13.25;67.10
9035;BME280;4552;43.422;24.592;2023-04-28T08:39:13;100483.09;;;13.39;67.28
9035;BME280;4552;43.422;24.592;2023-04-28T08:41:50;100478.56;;;13.47;65.48
9035;BME280;4552;43.422;24.592;2023-04-28T08:44:18;100485.31;;;13.62;66.12
9035;BME280;4552;43.422;24.592;2023-04-28T08:46:49;100485.31;;;13.62;63.79
9035;BME280;4552;43.422;24.592;2023-04-28T08:49:22;100486.34;;;13.53;65.72
9035;BME280;4552;43.422;24.592;2023-04-28T08:52:24;100473.88;;;13.11;66.96
9035;BME280;4552;43.422;24.592;2023-04-28T09:08:20;100453.34;;;14.32;62.51
9035;BME280;4552;43.422;24.592;2023-04-28T09:31:29;100445.75;;;14.58;60.00
9035;BME280;4552;43.422;24.592;2023-04-28T09:34:05;100438.09;;;14.85;59.93
9035;BME280;4552;43.422;24.592;2023-04-28T09:36:33;100441.34;;;14.57;59.77
9035;BME280;4552;43.422;24.592;2023-04-28T09:39:01;100445.72;;;14.59;59.56
9035;BME280;4552;43.422;24.592;2023-04-28T10:34:44;100393.22;;;15.58;54.83
9035;BME280;4552;43.422;24.592;2023-04-28T10:37:13;100386.47;;;16.10;54.06
9035;BME280;4552;43.422;24.592;2023-04-28T11:00:31;100388.38;;;16.34;49.70
9035;BME280;4552;43.422;24.592;2023-04-28T11:06:19;100378.81;;;16.01;47.74
9035;BME280;4552;43.422;24.592;2023-04-28T11:08:50;100369.94;;;16.03;48.08
9035;BME280;4552;43.422;24.592;2023-04-28T11:11:21;100367.66;;;16.78;47.44
9035;BME280;4552;43.422;24.592;2023-04-28T11:13:54;100365.63;;;17.39;45.80
9035;BME280;4552;43.422;24.592;2023-04-28T11:16:24;100376.94;;;17.17;45.73
9035;BME280;4552;43.422;24.592;2023-04-28T11:18:56;100361.56;;;16.76;45.65
9035;BME280;4552;43.422;24.592;2023-04-28T11:21:24;100366.69;;;16.53;44.72
9035;BME280;4552;43.422;24.592;2023-04-28T11:23:52;100371.31;;;16.16;45.57
9035;BME280;4552;43.422;24.592;2023-04-28T11:26:20;100364.03;;;15.95;46.66
9035;BME280;4552;43.422;24.592;2023-04-28T11:28:57;100365.34;;;15.79;46.65
9035;BME280;4552;43.422;24.592;2023-04-28T11:31:26;100360.94;;;15.80;47.55
9035;BME280;4552;43.422;24.592;2023-04-28T11:34:08;100360.16;;;16.07;47.37
9035;BME280;4552;43.422;24.592;2023-04-28T11:36:39;100344.72;;;16.22;46.48
9035;BME280;4552;43.422;24.592;2023-04-28T11:39:25;100356.81;;;16.29;45.27
9035;BME280;4552;43.422;24.592;2023-04-28T11:48:29;100335.97;;;16.20;42.80
9035;BME280;4552;43.422;24.592;2023-04-28T11:51:02;100332.81;;;15.79;42.78
9035;BME280;4552;43.422;24.592;2023-04-28T11:53:58;100353.38;;;16.27;42.27
9035;BME280;4552;43.422;24.592;2023-04-28T11:56:26;100346.91;;;16.08;41.73
9035;BME280;4552;43.422;24.592;2023-04-28T11:59:12;100339.50;;;15.90;41.61
9035;BME280;4552;43.422;24.592;2023-04-28T12:01:47;100330.06;;;16.12;41.54
9035;BME280;4552;43.422;24.592;2023-04-28T12:04:27;100328.34;;;15.81;41.68
9035;BME280;4552;43.422;24.592;2023-04-28T12:07:05;100330.44;;;15.99;41.75
9035;BME280;4552;43.422;24.592;2023-04-28T12:09:35;100320.34;;;15.84;42.12
9035;BME280;4552;43.422;24.592;2023-04-28T12:12:15;100331.31;;;15.99;43.01
9035;BME280;4552;43.422;24.592;2023-04-28T12:15:07;100339.56;;;15.89;43.62
9035;BME280;4552;43.422;24.592;2023-04-28T12:17:36;100319.94;;;15.97;44.02
9035;BME280;4552;43.422;24.592;2023-04-28T12:20:08;100323.03;;;16.11;44.73
9035;BME280;4552;43.422;24.592;2023-04-28T12:23:10;100319.84;;;16.29;44.51
9035;BME280;4552;43.422;24.592;2023-04-28T12:25:43;100298.00;;;16.24;43.13
9035;BME280;4552;43.422;24.592;2023-04-28T12:28:11;100301.91;;;16.11;43.92
9035;BME280;4552;43.422;24.592;2023-04-28T12:30:42;100306.81;;;16.23;44.23
9035;BME280;4552;43.422;24.592;2023-04-28T12:33:21;100292.53;;;16.01;43.80
9035;BME280;4552;43.422;24.592;2023-04-28T12:35:52;100304.47;;;16.14;44.19
9035;BME280;4552;43.422;24.592;2023-04-28T12:38:19;100289.84;;;15.74;44.58
9035;BME280;4552;43.422;24.592;2023-04-28T13:16:05;100261.66;;;17.83;40.06
9035;BME280;4552;43.422;24.592;2023-04-28T13:18:46;100276.41;;;17.17;41.20
9035;BME280;4552;43.422;24.592;2023-04-28T13:21:38;100260.28;;;16.74;41.42
9035;BME280;4552;43.422;24.592;2023-04-28T13:24:24;100258.59;;;16.72;39.81
9035;BME280;4552;43.422;24.592;2023-04-28T13:26:51;100251.00;;;16.61;40.86
9035;BME280;4552;43.422;24.592;2023-04-28T13:29:20;100258.88;;;16.63;41.85
9035;BME280;4552;43.422;24.592;2023-04-28T13:31:56;100255.19;;;16.68;43.11
9035;BME280;4552;43.422;24.592;2023-04-28T13:34:27;100254.25;;;16.95;40.33
9035;BME280;4552;43.422;24.592;2023-04-28T13:37:12;100235.09;;;17.13;39.31
9035;BME280;4552;43.422;24.592;2023-04-28T13:39:39;100230.06;;;17.06;39.35
9035;BME280;4552;43.422;24.592;2023-04-28T14:08:25;100249.53;;;16.25;40.34
9035;BME280;4552;43.422;24.592;2023-04-28T14:10:53;100236.16;;;16.02;40.83
9035;BME280;4552;43.422;24.592;2023-04-28T14:13:20;100233.00;;;15.91;40.88
9035;BME280;4552;43.422;24.592;2023-04-28T14:15:50;100233.91;;;15.90;40.99
9035;BME280;4552;43.422;24.592;2023-04-28T14:18:18;100233.09;;;15.88;41.12
9035;BME280;4552;43.422;24.592;2023-04-28T14:54:46;100207.16;;;16.28;42.56
9035;BME280;4552;43.422;24.592;2023-04-28T14:57:13;100201.59;;;16.10;42.10
9035;BME280;4552;43.422;24.592;2023-04-28T14:59:40;100198.56;;;15.94;42.48
9035;BME280;4552;43.422;24.592;2023-04-28T15:02:09;100192.16;;;15.75;42.70
9035;BME280;4552;43.422;24.592;2023-04-28T15:04:39;100179.13;;;15.69;43.04
9035;BME280;4552;43.422;24.592;2023-04-28T15:07:11;100196.66;;;15.72;42.32
9035;BME280;4552;43.422;24.592;2023-04-28T15:09:39;100178.53;;;15.59;42.31
9035;BME280;4552;43.422;24.592;2023-04-28T15:12:09;100185.06;;;15.77;42.38
9035;BME280;4552;43.422;24.592;2023-04-28T15:14:36;100191.81;;;16.13;41.70
9035;BME280;4552;43.422;24.592;2023-04-28T15:17:04;100191.97;;;16.35;40.81
9035;BME280;4552;43.422;24.592;2023-04-28T15:19:31;100175.09;;;16.39;41.22
9035;BME280;4552;43.422;24.592;2023-04-28T15:21:58;100187.09;;;16.50;41.29
9035;BME280;4552;43.422;24.592;2023-04-28T15:24:26;100190.09;;;16.64;41.36
9035;BME280;4552;43.422;24.592;2023-04-28T15:26:54;100190.78;;;16.71;41.21
9035;BME280;4552;43.422;24.592;2023-04-28T15:29:24;100181.84;;;16.49;41.75
9035;BME280;4552;43.422;24.592;2023-04-28T15:31:52;100183.97;;;16.38;40.98
9035;BME280;4552;43.422;24.592;2023-04-28T15:34:21;100189.28;;;16.10;41.31
9035;BME280;4552;43.422;24.592;2023-04-28T15:36:50;100174.34;;;16.09;41.90
9035;BME280;4552;43.422;24.592;2023-04-28T15:39:18;100187.81;;;16.00;42.11
9035;BME280;4552;43.422;24.592;2023-04-28T15:41:49;100182.88;;;16.17;41.81
9035;BME280;4552;43.422;24.592;2023-04-28T15:44:17;100184.13;;;16.06;42.10
9035;BME280;4552;43.422;24.592;2023-04-28T15:46:45;100186.94;;;16.01;42.48
9035;BME280;4552;43.422;24.592;2023-04-28T15:49:12;100177.28;;;16.26;42.08
9035;BME280;4552;43.422;24.592;2023-04-28T15:51:39;100177.00;;;16.09;42.40
9035;BME280;4552;43.422;24.592;2023-04-28T15:54:06;100179.78;;;16.03;41.72
9035;BME280;4552;43.422;24.592;2023-04-28T16:33:43;100182.09;;;15.58;45.28
9035;BME280;4552;43.422;24.592;2023-04-28T16:36:10;100170.53;;;15.63;44.81
9035;BME280;4552;43.422;24.592;2023-04-28T16:38:37;100171.03;;;15.46;45.64
9035;BME280;4552;43.422;24.592;2023-04-28T16:41:04;100177.06;;;15.51;45.57
9035;BME280;4552;43.422;24.592;2023-04-28T16:43:31;100185.53;;;15.30;45.06
9035;BME280;4552;43.422;24.592;2023-04-28T16:46:00;100186.84;;;15.15;45.51
9035;BME280;4552;43.422;24.592;2023-04-28T16:48:27;100168.19;;;15.23;45.63
9035;BME280;4552;43.422;24.592;2023-04-28T16:50:56;100172.31;;;15.31;44.64
9035;BME280;4552;43.422;24.592;2023-04-28T16:53:24;100175.91;;;15.29;45.51
9035;BME280;4552;43.422;24.592;2023-04-28T16:55:51;100180.91;;;15.39;45.18
9035;BME280;4552;43.422;24.592;2023-04-28T16:58:18;100185.69;;;15.56;45.37
9035;BME280;4552;43.422;24.592;2023-04-28T17:00:46;100186.69;;;15.52;45.30
9035;BME280;4552;43.422;24.592;2023-04-28T17:03:24;100194.16;;;15.38;45.86
9035;BME280;4552;43.422;24.592;2023-04-28T17:06:02;100198.81;;;15.27;48.01
9035;BME280;4552;43.422;24.592;2023-04-28T17:08:31;100190.94;;;14.95;47.81
9035;BME280;4552;43.422;24.592;2023-04-28T17:11:02;100188.38;;;14.92;48.86
9035;BME280;4552;43.422;24.592;2023-04-28T17:13:35;100181.16;;;14.68;49.88
9035;BME280;4552;43.422;24.592;2023-04-28T17:16:02;100188.41;;;14.58;50.03
9035;BME280;4552;43.422;24.592;2023-04-28T17:18:30;100174.75;;;14.44;52.63
9035;BME280;4552;43.422;24.592;2023-04-28T17:20:57;100181.97;;;14.36;52.83
9035;BME280;4552;43.422;24.592;2023-04-28T17:23:25;100172.38;;;14.34;53.65
9035;BME280;4552;43.422;24.592;2023-04-28T17:25:54;100171.53;;;13.97;53.98
9035;BME280;4552;43.422;24.592;2023-04-28T17:28:24;100174.72;;;13.71;55.55
9035;BME280;4552;43.422;24.592;2023-04-28T17:30:52;100163.94;;;13.43;56.08
9035;BME280;4552;43.422;24.592;2023-04-28T20:11:48;100168.50;;;9.40;88.78
9035;BME280;4552;43.422;24.592;2023-04-28T20:14:15;100162.47;;;9.30;89.31
9035;BME280;4552;43.422;24.592;2023-04-28T20:16:43;100172.03;;;9.28;90.05
9035;BME280;4552;43.422;24.592;2023-04-28T20:19:10;100173.78;;;9.25;90.32
9035;BME280;4552;43.422;24.592;2023-04-28T20:21:37;100163.31;;;9.28;89.12
9035;BME280;4552;43.422;24.592;2023-04-28T20:24:04;100174.59;;;9.40;88.15
9035;BME280;4552;43.422;24.592;2023-04-28T20:26:31;100162.34;;;9.51;86.65
9035;BME280;4552;43.422;24.592;2023-04-28T20:29:02;100159.72;;;9.50;85.90
9035;BME280;4552;43.422;24.592;2023-04-28T20:31:30;100156.31;;;9.37;86.20
9035;BME280;4552;43.422;24.592;2023-04-28T20:33:57;100148.53;;;9.25;87.64
9035;BME280;4552;43.422;24.592;2023-04-28T20:36:24;100140.75;;;9.18;88.70
9035;BME280;4552;43.422;24.592;2023-04-28T20:38:51;100151.19;;;9.16;89.13
9035;BME280;4552;43.422;24.592;2023-04-28T20:41:18;100155.56;;;9.11;89.90
9035;BME280;4552;43.422;24.592;2023-04-28T20:43:49;100152.13;;;9.09;89.61
9035;BME280;4552;43.422;24.592;2023-04-28T20:46:18;100145.13;;;9.08;89.76
9035;BME280;4552;43.422;24.592;2023-04-28T20:48:45;100144.31;;;8.93;90.43
9035;BME280;4552;43.422;24.592;2023-04-28T21:18:43;100147.06;;;8.55;93.23
9035;BME280;4552;43.422;24.592;2023-04-28T21:21:10;100143.56;;;8.56;92.66
9035;BME280;4552;43.422;24.592;2023-04-28T21:23:37;100141.84;;;8.55;93.01
9035;BME280;4552;43.422;24.592;2023-04-28T21:26:05;100143.56;;;8.65;92.84
9035;BME280;4552;43.422;24.592;2023-04-28T21:28:32;100143.53;;;8.80;92.23
9035;BME280;4552;43.422;24.592;2023-04-28T21:31:00;100145.28;;;8.75;92.32
9035;BME280;4552;43.422;24.592;2023-04-28T21:33:27;100139.13;;;8.90;91.22
9035;BME280;4552;43.422;24.592;2023-04-28T21:35:56;100135.63;;;8.97;89.55
9035;BME280;4552;43.422;24.592;2023-04-28T21:38:23;100145.13;;;9.08;89.12
9035;BME280;4552;43.422;24.592;2023-04-28T21:40:50;100129.53;;;8.96;88.80
9035;BME280;4552;43.422;24.592;2023-04-28T21:43:17;100136.50;;;8.94;88.88
9035;BME280;4552;43.422;24.592;2023-04-28T21:45:44;100141.72;;;8.91;88.56
9035;BME280;4552;43.422;24.592;2023-04-28T21:48:12;100146.13;;;8.83;89.19
9035;BME280;4552;43.422;24.592;2023-04-28T21:57:24;100134.84;;;8.70;90.85
9035;BME280;4552;43.422;24.592;2023-04-28T21:59:51;100124.44;;;8.69;90.47
9035;BME280;4552;43.422;24.592;2023-04-28T22:02:18;100143.56;;;8.71;90.54
9035;BME280;4552;43.422;24.592;2023-04-28T22:04:46;100119.22;;;8.61;90.61
9035;BME280;4552;43.422;24.592;2023-04-28T22:07:13;100133.13;;;8.62;90.86
9035;BME280;4552;43.422;24.592;2023-04-28T22:09:40;100124.47;;;8.51;91.15
9035;BME280;4552;43.422;24.592;2023-04-28T22:12:07;100127.06;;;8.61;90.82
9035;BME280;4552;43.422;24.592;2023-04-28T22:14:35;100117.47;;;8.62;91.30
9035;BME280;4552;43.422;24.592;2023-04-28T22:17:02;100112.25;;;8.62;91.09
9035;BME280;4552;43.422;24.592;2023-04-28T22:19:29;100101.81;;;8.62;90.37
9035;BME280;4552;43.422;24.592;2023-04-28T22:32:05;100112.25;;;8.65;87.67
9035;BME280;4552;43.422;24.592;2023-04-28T22:34:34;100104.44;;;8.57;88.38
9035;BME280;4552;43.422;24.592;2023-04-28T22:37:01;100097.47;;;8.61;88.35
9035;BME280;4552;43.422;24.592;2023-04-28T22:39:28;100095.81;;;8.43;88.94
9035;BME280;4552;43.422;24.592;2023-04-28T22:41:55;100079.31;;;8.34;89.96
9035;BME280;4552;43.422;24.592;2023-04-28T22:44:22;100092.31;;;8.47;90.01
9035;BME280;4552;43.422;24.592;2023-04-28T22:46:49;100089.69;;;8.55;89.60
9035;BME280;4552;43.422;24.592;2023-04-28T22:49:29;100068.84;;;8.46;89.20
9035;BME280;4552;43.422;24.592;2023-04-28T22:51:56;100081.81;;;8.68;88.13
9035;BME280;4552;43.422;24.592;2023-04-28T22:54:24;100080.91;;;8.75;87.58
9035;BME280;4552;43.422;24.592;2023-04-28T22:56:51;100075.69;;;8.80;87.85
9035;BME280;4552;43.422;24.592;2023-04-28T22:59:31;100081.75;;;8.82;87.31
9035;BME280;4552;43.422;24.592;2023-04-28T23:02:29;100060.06;;;8.69;87.20
9035;BME280;4552;43.422;24.592;2023-04-28T23:05:03;100071.34;;;8.74;87.74
9035;BME280;4552;43.422;24.592;2023-04-28T23:07:30;100057.44;;;8.65;88.78
9035;BME280;4552;43.422;24.592;2023-04-28T23:09:57;100058.38;;;8.55;89.69
9035;BME280;4552;43.422;24.592;2023-04-28T23:12:24;100058.38;;;8.53;89.93
9035;BME280;4552;43.422;24.592;2023-04-28T23:14:51;100059.25;;;8.57;89.43
9035;BME280;4552;43.422;24.592;2023-04-28T23:17:18;100056.66;;;8.51;89.61
9035;BME280;4552;43.422;24.592;2023-04-28T23:19:45;100058.38;;;8.53;88.94
